Time;durP1;ratioP1;P1;durP2;ratioP2;P2;SDS_P1;SDS_P2;PMS_P1;PMS_P2;Temp;Humidity;BMP_temperature;BMP_pressure;BME280_temperature;BME280_humidity;BME280_pressure;Samples;Min_cycle;Max_cycle;Signal;HPM_P1;HPM_P2
2021/01/01 00:01:46;;;;;;;0.40;0.40;;;;;;;;;;5089000;27;20175;-62
2021/01/01 00:04:13;;;;;;;3.80;0.70;;;;;;;;;;5097789;28;20220;-62
2021/01/01 00:06:40;;;;;;;6.67;3.17;;;;;;;;;;5087110;28;21794;-62
2021/01/01 00:09:07;;;;;;;2.80;0.30;;;;;;;;;;5086318;28;20943;-64
2021/01/01 00:11:34;;;;;;;3.07;1.07;;;;;;;;;;5087945;27;20186;-62
2021/01/01 00:14:01;;;;;;;4.53;1.47;;;;;;;;;;5093645;28;20316;-64
2021/01/01 00:16:28;;;;;;;0.30;0.30;;;;;;;;;;5090482;28;20216;-61
2021/01/01 00:18:54;;;;;;;1.93;0.67;;;;;;;;;;5089414;28;20204;-61
2021/01/01 00:21:28;;;;;;;3.20;2.37;;;;;;;;;;5088072;28;20185;-61
2021/01/01 00:23:55;;;;;;;0.37;0.27;;;;;;;;;;5099475;27;20367;-63
2021/01/01 00:26:22;;;;;;;0.27;0.27;;;;;;;;;;5088377;28;20269;-61
2021/01/01 00:28:49;;;;;;;0.30;0.30;;;;;;;;;;5087163;28;20276;-61
2021/01/01 00:31:19;;;;;;;0.87;0.40;;;;;;;;;;5091754;27;20173;-66
2021/01/01 00:33:46;;;;;;;2.80;1.00;;;;;;;;;;5092171;28;20185;-61
2021/01/01 00:42:43;;;;;;;0.07;0.07;;;;;;;;;;4998724;28;20881;-66
2021/01/01 00:45:24;;;;;;;0.93;0.63;;;;;;;;;;5001077;28;20188;-63
2021/01/01 00:47:58;;;;;;;0.67;0.23;;;;;;;;;;5002363;28;20265;-65
2021/01/01 00:50:34;;;;;;;6.80;1.17;;;;;;;;;;4985473;28;20230;-64
2021/01/01 00:53:09;;;;;;;3.83;1.23;;;;;;;;;;4986280;28;20220;-64
2021/01/01 00:55:44;;;;;;;3.73;1.17;;;;;;;;;;4988942;28;20196;-65
2021/01/01 00:58:17;;;;;;;1.23;1.13;;;;;;;;;;4981426;28;20180;-65
2021/01/01 01:00:48;;;;;;;2.07;1.50;;;;;;;;;;4991201;28;20240;-66
2021/01/01 01:03:38;;;;;;;2.00;1.20;;;;;;;;;;4984934;28;20464;-66
2021/01/01 01:06:13;;;;;;;0.10;0.10;;;;;;;;;;4980378;28;20722;-65
2021/01/01 01:08:45;;;;;;;0.47;0.30;;;;;;;;;;4980366;28;20327;-65
2021/01/01 01:11:45;;;;;;;2.37;0.73;;;;;;;;;;4990993;28;20284;-65
2021/01/01 01:14:15;;;;;;;0.20;0.20;;;;;;;;;;4987096;28;20300;-64
2021/01/01 01:16:55;;;;;;;0.13;0.13;;;;;;;;;;4980815;28;20196;-66
2021/01/01 01:19:28;;;;;;;2.17;0.73;;;;;;;;;;4982010;28;20192;-65
2021/01/01 01:21:58;;;;;;;0.00;0.00;;;;;;;;;;4986385;28;20201;-64
2021/01/01 01:24:27;;;;;;;0.10;0.10;;;;;;;;;;4979942;28;20287;-66
2021/01/01 01:26:57;;;;;;;2.00;0.83;;;;;;;;;;4994729;28;20312;-65
2021/01/01 01:29:24;;;;;;;0.27;0.27;;;;;;;;;;4985956;28;20474;-67
2021/01/01 01:31:51;;;;;;;1.57;0.40;;;;;;;;;;4987100;28;20305;-66
2021/01/01 01:34:38;;;;;;;0.00;0.00;;;;;;;;;;4997626;28;20185;-65
2021/01/01 01:37:10;;;;;;;0.10;0.10;;;;;;;;;;4984009;28;20286;-66
2021/01/01 01:39:42;;;;;;;0.10;0.10;;;;;;;;;;4994062;28;20986;-66
2021/01/01 01:42:09;;;;;;;0.37;0.20;;;;;;;;;;5020327;28;20235;-66
2021/01/01 01:44:45;;;;;;;5.20;0.20;;;;;;;;;;5039549;28;20195;-66
2021/01/01 01:47:25;;;;;;;0.93;0.33;;;;;;;;;;5040416;28;20238;-65
2021/01/01 01:49:52;;;;;;;2.33;0.87;;;;;;;;;;5027708;28;21226;-66
2021/01/01 01:52:19;;;;;;;0.10;0.10;;;;;;;;;;5026455;28;20245;-65
2021/01/01 01:54:50;;;;;;;4.43;0.40;;;;;;;;;;5035297;28;21022;-66
2021/01/01 01:57:18;;;;;;;1.33;1.23;;;;;;;;;;5029568;28;20210;-66
2021/01/01 01:59:54;;;;;;;0.63;0.57;;;;;;;;;;5036521;28;20222;-66
2021/01/01 02:02:25;;;;;;;0.13;0.13;;;;;;;;;;5039535;28;20637;-66
2021/01/01 02:04:52;;;;;;;0.50;0.50;;;;;;;;;;5036114;28;20338;-65
2021/01/01 02:07:28;;;;;;;0.00;0.00;;;;;;;;;;5032344;28;20269;-65
2021/01/01 02:10:00;;;;;;;3.63;0.97;;;;;;;;;;5048939;28;20252;-66
2021/01/01 02:12:27;;;;;;;17.57;0.83;;;;;;;;;;5025075;28;20310;-66
2021/01/01 02:15:03;;;;;;;0.67;0.67;;;;;;;;;;5035288;28;20202;-66
2021/01/01 02:17:30;;;;;;;0.63;0.63;;;;;;;;;;5034269;28;20194;-65
2021/01/01 02:20:07;;;;;;;0.20;0.20;;;;;;;;;;5033631;28;20191;-66
2021/01/01 02:22:35;;;;;;;0.00;0.00;;;;;;;;;;5027770;28;20193;-66
2021/01/01 02:25:05;;;;;;;0.30;0.30;;;;;;;;;;5039409;28;20233;-66
2021/01/01 02:27:32;;;;;;;0.97;0.37;;;;;;;;;;5034795;28;20226;-66
2021/01/01 02:30:06;;;;;;;0.10;0.10;;;;;;;;;;5040055;28;20204;-66
2021/01/01 02:32:33;;;;;;;0.30;0.30;;;;;;;;;;5036073;28;20218;-66
2021/01/01 02:35:00;;;;;;;10.20;0.93;;;;;;;;;;5032899;28;20532;-66
2021/01/01 02:37:27;;;;;;;2.20;0.97;;;;;;;;;;5032849;28;20248;-65
2021/01/01 02:40:06;;;;;;;0.77;0.17;;;;;;;;;;5031482;28;20288;-66
2021/01/01 02:42:39;;;;;;;0.10;0.10;;;;;;;;;;5033532;28;20306;-66
2021/01/01 02:45:06;;;;;;;0.00;0.00;;;;;;;;;;5026394;28;20294;-66
2021/01/01 02:47:33;;;;;;;0.00;0.00;;;;;;;;;;5025557;28;20195;-66
2021/01/01 02:50:22;;;;;;;2.10;1.03;;;;;;;;;;5037285;28;20225;-65
2021/01/01 02:52:50;;;;;;;2.57;0.67;;;;;;;;;;5028305;28;20213;-66
2021/01/01 02:55:24;;;;;;;0.57;0.57;;;;;;;;;;5033736;28;20179;-65
2021/01/01 02:57:51;;;;;;;0.03;0.03;;;;;;;;;;5035155;28;20192;-66
2021/01/01 03:00:18;;;;;;;0.27;0.27;;;;;;;;;;5031215;28;20178;-65
2021/01/01 03:02:45;;;;;;;0.20;0.20;;;;;;;;;;5035985;28;20186;-66
2021/01/01 03:05:13;;;;;;;8.40;1.60;;;;;;;;;;5025444;28;20256;-66
2021/01/01 03:07:40;;;;;;;2.27;1.10;;;;;;;;;;5026805;28;20241;-66
2021/01/01 03:10:10;;;;;;;7.37;0.70;;;;;;;;;;5032543;28;20191;-67
2021/01/01 03:12:40;;;;;;;1.10;0.13;;;;;;;;;;5030418;28;20206;-66
2021/01/01 03:15:09;;;;;;;5.30;0.63;;;;;;;;;;5042204;28;20201;-66
2021/01/01 03:17:38;;;;;;;5.40;1.60;;;;;;;;;;5035306;28;20218;-66
2021/01/01 03:20:06;;;;;;;0.10;0.10;;;;;;;;;;5042392;28;20578;-65
2021/01/01 03:22:32;;;;;;;0.10;0.10;;;;;;;;;;5042717;28;20615;-66
2021/01/01 03:25:02;;;;;;;0.93;0.30;;;;;;;;;;5043107;28;20641;-65
2021/01/01 03:27:32;;;;;;;0.30;0.30;;;;;;;;;;5034162;28;20325;-67
2021/01/01 03:30:09;;;;;;;2.10;1.60;;;;;;;;;;5024426;28;20187;-66
2021/01/01 03:32:44;;;;;;;0.50;0.50;;;;;;;;;;5035017;28;20592;-66
2021/01/01 03:35:11;;;;;;;2.13;0.43;;;;;;;;;;5042349;28;20301;-65
2021/01/01 03:37:38;;;;;;;0.40;0.40;;;;;;;;;;5035016;28;20188;-66
2021/01/01 03:40:15;;;;;;;0.70;0.20;;;;;;;;;;5037927;28;20632;-66
2021/01/01 03:43:01;;;;;;;0.40;0.20;;;;;;;;;;5040208;28;20726;-65
2021/01/01 03:45:32;;;;;;;4.53;0.83;;;;;;;;;;5041889;28;20333;-66
2021/01/01 03:47:59;;;;;;;0.27;0.27;;;;;;;;;;5036813;28;20541;-66
2021/01/01 03:50:25;;;;;;;4.90;0.70;;;;;;;;;;5034501;28;20182;-65
2021/01/01 03:52:53;;;;;;;0.50;0.37;;;;;;;;;;5041723;28;20185;-65
2021/01/01 03:55:20;;;;;;;2.03;0.37;;;;;;;;;;5033029;28;20681;-65
2021/01/01 03:57:46;;;;;;;5.90;0.53;;;;;;;;;;5036208;28;20183;-66
2021/01/01 04:00:19;;;;;;;0.00;0.00;;;;;;;;;;5034873;28;20311;-66
2021/01/01 04:02:49;;;;;;;7.43;6.70;;;;;;;;;;5035954;28;20183;-65
2021/01/01 04:05:16;;;;;;;0.90;0.47;;;;;;;;;;5036578;28;20203;-66
2021/01/01 04:07:43;;;;;;;0.10;0.10;;;;;;;;;;5034895;28;20715;-66
2021/01/01 04:10:10;;;;;;;6.83;1.50;;;;;;;;;;5040992;28;20198;-65
2021/01/01 04:12:36;;;;;;;0.10;0.10;;;;;;;;;;5037581;28;20206;-65
2021/01/01 14:38:01;;;;;;;0.00;0.00;;;;;;;;;;6268719;22;20906;-63
2021/01/01 14:40:28;;;;;;;0.13;0.13;;;;;;;;;;6268190;22;20161;-64
2021/01/01 14:42:54;;;;;;;5.73;1.17;;;;;;;;;;6269493;22;20151;-67
2021/01/01 14:45:21;;;;;;;1.40;1.20;;;;;;;;;;6267947;22;20154;-62
2021/01/01 14:47:47;;;;;;;0.27;0.20;;;;;;;;;;6267911;22;20162;-63
2021/01/01 14:50:14;;;;;;;0.87;0.63;;;;;;;;;;6267710;22;20173;-64
2021/01/01 14:52:41;;;;;;;0.30;0.30;;;;;;;;;;6267606;22;20172;-62
2021/01/01 14:55:09;;;;;;;0.83;0.77;;;;;;;;;;6268030;22;20154;-64
2021/01/01 14:57:39;;;;;;;5.40;1.20;;;;;;;;;;6264784;22;20154;-72
2021/01/01 15:00:07;;;;;;;1.13;0.93;;;;;;;;;;6263576;22;20168;-64
2021/01/01 15:02:34;;;;;;;2.60;0.83;;;;;;;;;;6266794;22;20650;-63
2021/01/01 15:05:00;;;;;;;9.33;0.87;;;;;;;;;;6267691;22;20153;-63
2021/01/01 15:07:27;;;;;;;4.13;0.43;;;;;;;;;;6265964;22;20662;-63
2021/01/01 15:09:54;;;;;;;2.00;1.83;;;;;;;;;;6266765;22;20156;-63
2021/01/01 15:12:21;;;;;;;1.80;0.70;;;;;;;;;;6268068;22;20320;-63
2021/01/01 15:14:47;;;;;;;4.80;1.07;;;;;;;;;;6268150;22;20188;-64
2021/01/01 15:17:15;;;;;;;5.73;1.07;;;;;;;;;;6267408;22;20265;-64
2021/01/01 15:19:41;;;;;;;0.57;0.40;;;;;;;;;;6268417;22;20190;-64
2021/01/01 15:22:08;;;;;;;1.07;0.33;;;;;;;;;;6268014;22;20158;-63
2021/01/01 15:24:35;;;;;;;9.33;0.63;;;;;;;;;;6268136;22;20158;-68
2021/01/01 15:27:01;;;;;;;0.00;0.00;;;;;;;;;;6257845;22;20328;-69
2021/01/01 15:29:28;;;;;;;2.47;1.03;;;;;;;;;;6256294;22;20158;-68
2021/01/01 15:31:55;;;;;;;4.10;1.43;;;;;;;;;;6258471;22;20163;-68
2021/01/01 15:34:21;;;;;;;8.23;1.10;;;;;;;;;;6259911;22;20170;-68
2021/01/01 15:36:48;;;;;;;0.13;0.10;;;;;;;;;;6259979;22;20190;-65
2021/01/01 15:39:14;;;;;;;0.93;0.23;;;;;;;;;;6260532;22;20190;-71
2021/01/01 15:41:45;;;;;;;2.43;1.30;;;;;;;;;;6261288;22;20159;-72
2021/01/01 15:44:11;;;;;;;1.13;0.60;;;;;;;;;;6259305;22;20161;-71
2021/01/01 15:46:38;;;;;;;2.63;1.27;;;;;;;;;;6260218;22;20155;-72
2021/01/01 15:49:05;;;;;;;0.07;0.07;;;;;;;;;;6261189;22;20158;-71
2021/01/01 15:51:32;;;;;;;4.23;0.53;;;;;;;;;;6261149;22;20753;-71
2021/01/01 15:53:59;;;;;;;0.00;0.00;;;;;;;;;;6260835;22;20160;-71
2021/01/01 15:56:26;;;;;;;1.60;1.30;;;;;;;;;;6261373;22;20691;-71
2021/01/01 15:58:53;;;;;;;0.67;0.30;;;;;;;;;;6257598;22;20197;-72
2021/01/01 16:01:19;;;;;;;0.77;0.30;;;;;;;;;;6256630;22;20159;-72
2021/01/01 16:03:46;;;;;;;1.03;0.70;;;;;;;;;;6256874;22;20236;-71
2021/01/01 16:06:12;;;;;;;0.77;0.10;;;;;;;;;;6256597;22;20178;-71
2021/01/01 16:08:39;;;;;;;8.33;3.30;;;;;;;;;;6258774;22;20155;-73
2021/01/01 16:11:08;;;;;;;2.40;1.07;;;;;;;;;;6261323;22;20197;-65
2021/01/01 16:13:34;;;;;;;4.43;1.43;;;;;;;;;;6261260;22;20188;-66
2021/01/01 16:16:01;;;;;;;12.00;0.43;;;;;;;;;;6254563;22;20632;-65
2021/01/01 16:18:28;;;;;;;0.20;0.10;;;;;;;;;;6259492;22;20186;-66
2021/01/01 16:20:54;;;;;;;3.13;0.47;;;;;;;;;;6258936;22;20604;-68
2021/01/01 16:23:21;;;;;;;0.43;0.40;;;;;;;;;;6260374;22;20633;-68
2021/01/01 16:25:48;;;;;;;15.07;1.10;;;;;;;;;;6258431;22;20166;-69
2021/01/01 16:28:14;;;;;;;0.83;0.77;;;;;;;;;;6259644;22;20165;-71
2021/01/01 16:30:41;;;;;;;0.10;0.10;;;;;;;;;;6259305;22;20175;-66
2021/01/01 16:33:08;;;;;;;4.90;0.83;;;;;;;;;;6259998;22;21005;-66
2021/01/01 16:35:34;;;;;;;1.07;0.60;;;;;;;;;;6259275;22;20194;-67
2021/01/01 16:38:01;;;;;;;1.50;0.33;;;;;;;;;;6259324;22;20297;-66
2021/01/01 16:40:28;;;;;;;10.90;9.97;;;;;;;;;;6259858;22;20154;-67
2021/01/01 16:42:55;;;;;;;0.67;0.50;;;;;;;;;;6258483;22;20240;-66
2021/01/01 16:45:22;;;;;;;0.87;0.73;;;;;;;;;;6257213;22;20534;-66
2021/01/01 16:47:49;;;;;;;1.97;0.53;;;;;;;;;;6259535;22;20162;-67
2021/01/01 16:50:16;;;;;;;7.43;1.03;;;;;;;;;;6260314;22;20574;-66
2021/01/01 16:52:48;;;;;;;1.53;0.93;;;;;;;;;;6260663;22;20236;-68
2021/01/01 16:55:16;;;;;;;2.00;0.87;;;;;;;;;;6260087;22;20158;-66
2021/01/01 16:57:42;;;;;;;0.23;0.20;;;;;;;;;;6259899;22;20420;-70
2021/01/01 17:00:11;;;;;;;17.93;1.73;;;;;;;;;;6259473;22;20163;-70
2021/01/01 17:05:18;;;;;;;2.43;0.67;;;;;;;;;;6259142;22;20236;-66
2021/01/01 17:07:45;;;;;;;1.80;0.53;;;;;;;;;;6259740;22;20243;-67
2021/01/01 17:10:11;;;;;;;1.43;0.37;;;;;;;;;;6258227;22;20184;-61
2021/01/01 17:12:38;;;;;;;2.23;1.90;;;;;;;;;;6256638;22;20161;-61
2021/01/01 17:15:10;;;;;;;2.57;0.50;;;;;;;;;;6257909;22;20234;-61
2021/01/01 17:17:36;;;;;;;2.47;0.37;;;;;;;;;;6258376;22;20782;-61
2021/01/01 17:20:04;;;;;;;5.00;0.40;;;;;;;;;;6259372;22;20158;-62
2021/01/01 17:22:34;;;;;;;1.20;0.20;;;;;;;;;;6257493;22;20266;-62
2021/01/01 17:25:01;;;;;;;0.10;0.10;;;;;;;;;;6259247;22;20150;-63
2021/01/01 17:27:28;;;;;;;0.37;0.30;;;;;;;;;;6257110;22;20197;-63
2021/01/01 17:29:55;;;;;;;0.43;0.27;;;;;;;;;;6258724;22;20619;-62
2021/01/01 17:32:21;;;;;;;1.80;0.67;;;;;;;;;;6256853;22;20185;-66
2021/01/01 17:34:48;;;;;;;4.43;0.93;;;;;;;;;;6257258;22;20763;-67
2021/01/01 17:37:16;;;;;;;0.33;0.33;;;;;;;;;;6257525;22;20158;-67
2021/01/01 17:39:46;;;;;;;13.70;2.23;;;;;;;;;;6258899;22;20967;-66
2021/01/01 17:42:13;;;;;;;0.77;0.40;;;;;;;;;;6257225;22;20162;-68
2021/01/01 17:44:40;;;;;;;2.07;1.10;;;;;;;;;;6258613;22;20155;-69
2021/01/01 17:47:07;;;;;;;0.37;0.30;;;;;;;;;;6255981;22;20170;-71
2021/01/01 17:49:33;;;;;;;0.30;0.20;;;;;;;;;;6256762;22;20584;-60
2021/01/01 17:52:07;;;;;;;7.20;2.33;;;;;;;;;;6258478;22;20173;-59
2021/01/01 17:54:33;;;;;;;0.83;0.37;;;;;;;;;;6255822;22;20471;-61
2021/01/01 17:57:01;;;;;;;4.23;1.10;;;;;;;;;;6257577;22;20916;-61
2021/01/01 17:59:27;;;;;;;0.30;0.10;;;;;;;;;;6257394;22;20186;-61
2021/01/01 18:01:54;;;;;;;0.30;0.20;;;;;;;;;;6258607;22;20163;-60
2021/01/01 18:04:21;;;;;;;0.07;0.03;;;;;;;;;;6257868;22;20965;-60
2021/01/01 18:06:48;;;;;;;3.67;0.37;;;;;;;;;;6257870;22;20639;-60
2021/01/01 18:09:14;;;;;;;0.33;0.33;;;;;;;;;;6257002;22;20166;-60
2021/01/01 18:11:41;;;;;;;0.97;0.53;;;;;;;;;;6258822;22;20434;-60
2021/01/01 18:14:08;;;;;;;1.63;0.70;;;;;;;;;;6257919;22;20158;-61
2021/01/01 18:16:36;;;;;;;3.13;0.43;;;;;;;;;;6257207;22;20162;-61
2021/01/01 18:19:03;;;;;;;1.90;1.30;;;;;;;;;;6257500;22;20193;-62
2021/01/01 18:21:31;;;;;;;4.33;1.03;;;;;;;;;;6257927;22;20245;-61
2021/01/01 18:23:57;;;;;;;1.43;0.70;;;;;;;;;;6258554;22;20155;-68
2021/01/01 18:26:25;;;;;;;5.30;1.57;;;;;;;;;;6257382;22;20154;-72
2021/01/01 18:28:52;;;;;;;3.93;0.77;;;;;;;;;;6256455;22;20216;-64
2021/01/01 18:31:22;;;;;;;1.20;0.60;;;;;;;;;;6254681;22;20162;-63
2021/01/01 18:33:49;;;;;;;1.70;0.47;;;;;;;;;;6255574;22;20525;-64
2021/01/01 18:36:18;;;;;;;5.87;0.83;;;;;;;;;;6258135;22;20162;-64
2021/01/01 18:39:05;;;;;;;0.20;0.10;;;;;;;;;;6258395;22;20638;-64
2021/01/01 18:41:33;;;;;;;0.27;0.27;;;;;;;;;;6257406;22;20235;-63
2021/01/01 18:44:06;;;;;;;0.00;0.00;;;;;;;;;;6258971;22;20622;-62
2021/01/01 18:46:33;;;;;;;0.20;0.20;;;;;;;;;;6258090;22;20161;-64
2021/01/01 18:49:00;;;;;;;3.10;2.67;;;;;;;;;;6257934;22;20165;-65
2021/01/01 18:51:26;;;;;;;0.50;0.50;;;;;;;;;;6258795;22;20182;-64
2021/01/01 18:54:06;;;;;;;5.07;1.00;;;;;;;;;;6256827;22;20782;-64
2021/01/01 18:56:34;;;;;;;0.73;0.60;;;;;;;;;;6256582;22;20261;-61
2021/01/01 18:59:03;;;;;;;2.77;2.13;;;;;;;;;;6257115;22;20555;-61
2021/01/01 19:01:38;;;;;;;1.70;0.50;;;;;;;;;;6257565;22;20228;-61
2021/01/01 19:04:10;;;;;;;6.03;0.70;;;;;;;;;;6252495;22;20197;-61
2021/01/01 19:07:00;;;;;;;1.83;0.90;;;;;;;;;;6257670;22;20154;-64
2021/01/01 19:09:27;;;;;;;5.23;1.67;;;;;;;;;;6242784;22;20679;-61
2021/01/01 19:11:54;;;;;;;4.30;0.80;;;;;;;;;;6259891;22;20166;-61
2021/01/01 19:14:25;;;;;;;3.10;1.43;;;;;;;;;;6260558;22;20590;-61
2021/01/01 19:16:56;;;;;;;1.23;0.73;;;;;;;;;;6258204;22;20624;-63
2021/01/01 19:19:31;;;;;;;1.23;0.70;;;;;;;;;;6259022;22;20659;-61
2021/01/01 19:22:04;;;;;;;0.53;0.33;;;;;;;;;;6257825;22;20162;-61
2021/01/01 19:24:41;;;;;;;0.03;0.03;;;;;;;;;;6261139;22;20162;-61
2021/01/01 19:27:12;;;;;;;5.07;0.73;;;;;;;;;;6261082;22;20553;-60
2021/01/01 19:29:47;;;;;;;1.97;1.87;;;;;;;;;;6260756;22;20172;-61
2021/01/01 19:32:14;;;;;;;0.53;0.50;;;;;;;;;;6259959;22;20166;-65
2021/01/01 19:35:07;;;;;;;0.20;0.20;;;;;;;;;;6261037;22;20176;-60
2021/01/01 19:37:52;;;;;;;0.70;0.40;;;;;;;;;;6254588;22;20196;-62
2021/01/01 19:40:37;;;;;;;0.00;0.00;;;;;;;;;;6260898;22;20161;-62
2021/01/01 19:43:19;;;;;;;1.10;0.47;;;;;;;;;;6261153;22;20571;-60
2021/01/01 19:45:55;;;;;;;0.47;0.00;;;;;;;;;;6258917;22;20158;-67
2021/01/01 19:48:53;;;;;;;1.10;0.20;;;;;;;;;;6259990;22;20192;-69
2021/01/01 19:51:29;;;;;;;0.27;0.27;;;;;;;;;;6260045;22;20162;-69
2021/01/01 19:53:59;;;;;;;1.97;0.67;;;;;;;;;;6260504;22;20168;-69
2021/01/01 19:56:28;;;;;;;3.90;1.20;;;;;;;;;;6257719;22;20630;-73
2021/01/01 19:58:55;;;;;;;0.80;0.80;;;;;;;;;;6257101;22;20224;-68
2021/01/01 20:01:32;;;;;;;2.90;0.33;;;;;;;;;;6260689;22;20244;-70
2021/01/01 20:04:08;;;;;;;1.30;1.07;;;;;;;;;;6259129;22;20229;-68
2021/01/01 20:06:41;;;;;;;2.83;1.37;;;;;;;;;;6259467;22;20204;-68
2021/01/01 20:09:12;;;;;;;3.83;3.53;;;;;;;;;;6260340;22;20170;-68
2021/01/01 20:11:39;;;;;;;3.60;2.20;;;;;;;;;;6258770;22;20234;-70
2021/01/01 20:14:06;;;;;;;0.00;0.00;;;;;;;;;;6259091;22;20498;-71
2021/01/01 20:16:38;;;;;;;1.70;0.30;;;;;;;;;;6260178;22;20182;-71
2021/01/01 20:19:06;;;;;;;8.40;1.53;;;;;;;;;;6256573;22;20217;-69
2021/01/01 20:21:33;;;;;;;0.57;0.37;;;;;;;;;;6260059;22;20166;-71
2021/01/01 20:24:00;;;;;;;0.07;0.07;;;;;;;;;;6259422;22;20236;-74
2021/01/01 20:26:27;;;;;;;2.47;0.30;;;;;;;;;;6260470;22;20245;-62
2021/01/01 20:28:53;;;;;;;9.97;0.77;;;;;;;;;;6258228;22;20602;-62
2021/01/01 20:31:21;;;;;;;0.73;0.20;;;;;;;;;;6258986;22;20200;-62
2021/01/01 20:33:49;;;;;;;4.60;2.97;;;;;;;;;;6258873;22;20604;-63
2021/01/01 20:36:38;;;;;;;6.13;1.10;;;;;;;;;;6260401;22;20158;-62
2021/01/01 20:39:29;;;;;;;0.07;0.07;;;;;;;;;;6260052;22;20279;-62
2021/01/01 20:42:15;;;;;;;1.90;0.87;;;;;;;;;;6260800;22;20158;-63
2021/01/01 20:44:55;;;;;;;3.80;0.73;;;;;;;;;;6259732;22;20237;-62
2021/01/01 20:56:08;;;;;;;1.13;1.00;;;;;;;;;;6259025;22;20158;-62
2021/01/01 20:58:39;;;;;;;1.50;0.20;;;;;;;;;;6256432;22;20192;-63
2021/01/01 21:01:09;;;;;;;4.17;1.33;;;;;;;;;;6258099;22;20186;-63
2021/01/01 21:03:38;;;;;;;1.40;0.10;;;;;;;;;;6258446;22;20230;-73
2021/01/01 21:06:05;;;;;;;5.83;0.87;;;;;;;;;;6259885;22;20165;-75
2021/01/01 21:08:49;;;;;;;0.00;0.00;;;;;;;;;;6255616;22;20157;-72
2021/01/01 21:11:16;;;;;;;0.73;0.10;;;;;;;;;;6259189;22;20162;-76
2021/01/01 21:14:01;;;;;;;3.13;0.63;;;;;;;;;;6261311;22;20158;-70
2021/01/01 21:16:34;;;;;;;0.10;0.07;;;;;;;;;;6259660;22;20198;-72
2021/01/01 21:19:10;;;;;;;0.20;0.10;;;;;;;;;;6258473;22;20190;-73
2021/01/01 21:21:55;;;;;;;1.33;0.37;;;;;;;;;;6258841;22;20165;-71
2021/01/01 21:24:30;;;;;;;5.93;2.20;;;;;;;;;;6258642;22;20150;-71
2021/01/01 21:27:10;;;;;;;0.40;0.10;;;;;;;;;;6257094;22;20161;-72
2021/01/01 21:29:43;;;;;;;0.93;0.63;;;;;;;;;;6259447;22;20170;-72
2021/01/01 21:32:24;;;;;;;0.00;0.00;;;;;;;;;;6255839;22;20172;-73
2021/01/01 21:35:10;;;;;;;3.20;0.43;;;;;;;;;;6256469;22;20158;-63
2021/01/01 21:37:55;;;;;;;0.33;0.33;;;;;;;;;;6257866;22;20158;-67
2021/01/01 21:40:22;;;;;;;0.20;0.20;;;;;;;;;;6254247;22;20157;-61
2021/01/01 21:42:51;;;;;;;2.70;1.03;;;;;;;;;;6257455;22;20158;-61
2021/01/01 21:45:36;;;;;;;1.77;0.83;;;;;;;;;;6258039;22;20162;-61
2021/01/01 21:48:10;;;;;;;0.60;0.23;;;;;;;;;;6258118;22;20161;-62
2021/01/01 21:50:39;;;;;;;6.77;1.30;;;;;;;;;;6258614;22;20228;-61
2021/01/01 21:53:08;;;;;;;2.57;0.87;;;;;;;;;;6257925;22;20636;-61
2021/01/01 21:55:36;;;;;;;0.00;0.00;;;;;;;;;;6256662;22;20154;-61
2021/01/01 21:58:04;;;;;;;1.90;0.87;;;;;;;;;;6254368;22;20209;-62
2021/01/01 22:00:31;;;;;;;1.80;0.40;;;;;;;;;;6254448;22;20168;-67
2021/01/01 22:02:58;;;;;;;0.63;0.30;;;;;;;;;;6256148;22;20158;-62
2021/01/01 22:05:26;;;;;;;0.67;0.47;;;;;;;;;;6259874;22;20186;-64
2021/01/01 22:07:53;;;;;;;0.10;0.10;;;;;;;;;;6256891;22;20479;-65
2021/01/01 22:10:19;;;;;;;1.10;0.43;;;;;;;;;;6256663;22;20157;-64
2021/01/01 22:12:47;;;;;;;0.30;0.23;;;;;;;;;;6255959;22;20158;-65
2021/01/01 22:15:14;;;;;;;0.00;0.00;;;;;;;;;;6255570;22;20860;-65
2021/01/01 22:17:42;;;;;;;0.90;0.57;;;;;;;;;;6255146;22;20158;-64
2021/01/01 22:20:08;;;;;;;0.97;0.73;;;;;;;;;;6257012;22;20153;-65
2021/01/01 22:22:35;;;;;;;0.73;0.73;;;;;;;;;;6257327;22;20158;-64
2021/01/01 22:25:01;;;;;;;0.53;0.17;;;;;;;;;;6256486;22;20158;-64
2021/01/01 22:27:28;;;;;;;2.80;0.33;;;;;;;;;;6255701;22;20157;-64
2021/01/01 22:29:56;;;;;;;5.87;2.13;;;;;;;;;;6257848;22;20166;-65
2021/01/01 22:32:23;;;;;;;0.20;0.13;;;;;;;;;;6254860;22;20166;-64
2021/01/01 22:34:49;;;;;;;1.77;0.40;;;;;;;;;;6257545;22;20642;-64
2021/01/01 22:37:17;;;;;;;1.90;0.97;;;;;;;;;;6258091;22;20163;-65
2021/01/01 22:39:44;;;;;;;0.43;0.00;;;;;;;;;;6257336;22;20189;-63
2021/01/01 22:42:11;;;;;;;1.33;0.20;;;;;;;;;;6259047;22;20737;-59
2021/01/01 22:44:37;;;;;;;2.40;1.13;;;;;;;;;;6256598;22;20154;-59
2021/01/01 22:47:04;;;;;;;0.00;0.00;;;;;;;;;;6253112;22;20249;-60
2021/01/01 22:49:38;;;;;;;2.23;0.33;;;;;;;;;;6254082;22;20162;-63
2021/01/01 22:52:05;;;;;;;0.97;0.23;;;;;;;;;;6257136;22;20188;-60
2021/01/01 22:54:32;;;;;;;1.73;0.97;;;;;;;;;;6255643;22;20908;-59
2021/01/01 22:56:58;;;;;;;0.10;0.00;;;;;;;;;;6258952;22;20162;-62
2021/01/01 22:59:28;;;;;;;0.43;0.43;;;;;;;;;;6257570;22;20919;-60
2021/01/01 23:01:56;;;;;;;6.70;2.10;;;;;;;;;;6258188;22;20161;-61
2021/01/01 23:04:25;;;;;;;0.13;0.10;;;;;;;;;;6255702;22;20201;-60
2021/01/01 23:06:52;;;;;;;3.97;0.43;;;;;;;;;;6257613;22;20158;-61
2021/01/01 23:09:18;;;;;;;0.73;0.30;;;;;;;;;;6256877;22;20154;-60
2021/01/01 23:11:45;;;;;;;1.10;0.60;;;;;;;;;;6259049;22;20770;-60
2021/01/01 23:14:12;;;;;;;8.10;2.13;;;;;;;;;;6257934;22;20169;-64
2021/01/01 23:16:39;;;;;;;6.43;2.73;;;;;;;;;;6255626;22;20227;-64
2021/01/01 23:19:11;;;;;;;0.10;0.10;;;;;;;;;;6256471;22;20314;-64
2021/01/01 23:21:47;;;;;;;4.17;1.30;;;;;;;;;;6257671;22;20650;-63
2021/01/01 23:24:23;;;;;;;0.97;0.47;;;;;;;;;;6259609;22;20162;-64
2021/01/01 23:26:51;;;;;;;5.93;1.10;;;;;;;;;;6260044;22;20153;-63
2021/01/01 23:29:41;;;;;;;0.00;0.00;;;;;;;;;;6257808;22;20162;-63
2021/01/01 23:32:31;;;;;;;1.77;1.30;;;;;;;;;;6259210;22;20169;-63
2021/01/01 23:35:12;;;;;;;3.70;0.87;;;;;;;;;;6257832;22;20211;-64
2021/01/01 23:37:53;;;;;;;0.87;0.87;;;;;;;;;;6257219;22;20193;-63
2021/01/01 23:40:29;;;;;;;1.17;0.67;;;;;;;;;;6259940;22;20458;-60
2021/01/01 23:42:58;;;;;;;1.47;0.83;;;;;;;;;;6258422;22;20751;-60
2021/01/01 23:45:30;;;;;;;0.50;0.50;;;;;;;;;;6260491;22;20158;-60
2021/01/01 23:48:02;;;;;;;2.90;1.07;;;;;;;;;;6259349;22;20187;-61
2021/01/01 23:50:30;;;;;;;0.00;0.00;;;;;;;;;;6257759;22;20158;-64
2021/01/01 23:52:58;;;;;;;1.33;0.63;;;;;;;;;;6259538;22;20162;-63
2021/01/01 23:55:25;;;;;;;2.27;0.87;;;;;;;;;;6260290;22;20182;-63
2021/01/01 23:57:53;;;;;;;15.87;1.97;;;;;;;;;;6258910;22;20154;-63
